KMOP/MOP METAR and TAF weather

Enter ICAO airport designator
Station Type Date Time Source
KMOP METAR 2019/04/25 01:56 UTC NOAA

KMOP 250156Z AUTO 00000KT 10SM CLR 12/01 A2988 RMK AO2 T01240011


Station Type Date Time Source
KMOP Decoded METAR 2019/04/25 01:56 UTC NOAA

Mount Pleasant, Mount Pleasant Municipal Airport, MI, United States (KMOP) 43-37N 84-44W
Apr 24, 2019 - 09:56 PM EDT / 2019.04.25 0156 UTC
Wind: Calm:0
Visibility: 10 mile(s):0
Sky conditions: clear
Temperature: 54.3 F (12.4 C)
Dew Point: 34.0 F (1.1 C)
Relative Humidity: 45%
Pressure (altimeter): 29.88 in. Hg (1011 hPa)
ob: KMOP 250156Z AUTO 00000KT 10SM CLR 12/01 A2988 RMK AO2 T01240011
cycle: 2

Station Type Date Time Source
KMOP TAF UTC NOAA

Error!

Example: see airport list